sensor_id;sensor_type;location;lat;lon;timestamp;P1;durP1;ratioP1;P2;durP2;ratioP2
43986;SDS011;29650;47.378;8.300;2023-04-15T00:02:15;3.97;;;2.03;;
43986;SDS011;29650;47.378;8.300;2023-04-15T00:04:42;3.30;;;1.38;;
43986;SDS011;29650;47.378;8.300;2023-04-15T00:07:11;3.55;;;1.20;;
43986;SDS011;29650;47.378;8.300;2023-04-15T00:09:38;2.15;;;1.05;;
43986;SDS011;29650;47.378;8.300;2023-04-15T00:12:06;4.50;;;1.17;;
43986;SDS011;29650;47.378;8.300;2023-04-15T00:14:33;1.23;;;0.90;;
43986;SDS011;29650;47.378;8.300;2023-04-15T00:17:01;2.38;;;1.15;;
43986;SDS011;29650;47.378;8.300;2023-04-15T00:19:28;2.53;;;2.00;;
43986;SDS011;29650;47.378;8.300;2023-04-15T00:21:55;8.13;;;2.40;;
43986;SDS011;29650;47.378;8.300;2023-04-15T00:24:23;3.33;;;2.17;;
43986;SDS011;29650;47.378;8.300;2023-04-15T00:26:50;4.85;;;2.05;;
43986;SDS011;29650;47.378;8.300;2023-04-15T00:29:17;2.92;;;1.10;;
43986;SDS011;29650;47.378;8.300;2023-04-15T00:31:44;3.60;;;1.52;;
43986;SDS011;29650;47.378;8.300;2023-04-15T00:34:11;2.35;;;1.35;;
43986;SDS011;29650;47.378;8.300;2023-04-15T00:36:39;1.80;;;1.20;;
43986;SDS011;29650;47.378;8.300;2023-04-15T00:39:05;5.43;;;1.25;;
43986;SDS011;29650;47.378;8.300;2023-04-15T00:41:34;2.67;;;1.30;;
43986;SDS011;29650;47.378;8.300;2023-04-15T00:44:03;2.25;;;1.13;;
43986;SDS011;29650;47.378;8.300;2023-04-15T00:46:30;1.17;;;0.73;;
43986;SDS011;29650;47.378;8.300;2023-04-15T00:49:01;1.60;;;1.00;;
43986;SDS011;29650;47.378;8.300;2023-04-15T00:51:29;1.58;;;0.70;;
43986;SDS011;29650;47.378;8.300;2023-04-15T00:53:57;3.08;;;1.00;;
43986;SDS011;29650;47.378;8.300;2023-04-15T00:56:24;3.00;;;0.85;;
43986;SDS011;29650;47.378;8.300;2023-04-15T01:01:22;2.40;;;0.75;;
43986;SDS011;29650;47.378;8.300;2023-04-15T01:03:50;1.23;;;1.03;;
43986;SDS011;29650;47.378;8.300;2023-04-15T01:06:17;0.60;;;0.60;;
43986;SDS011;29650;47.378;8.300;2023-04-15T01:08:45;4.70;;;1.20;;
43986;SDS011;29650;47.378;8.300;2023-04-15T01:11:12;2.20;;;1.30;;
43986;SDS011;29650;47.378;8.300;2023-04-15T01:13:40;4.00;;;1.30;;
43986;SDS011;29650;47.378;8.300;2023-04-15T01:16:08;4.05;;;2.53;;
43986;SDS011;29650;47.378;8.300;2023-04-15T01:18:36;3.40;;;1.20;;
43986;SDS011;29650;47.378;8.300;2023-04-15T01:21:03;2.05;;;1.25;;
43986;SDS011;29650;47.378;8.300;2023-04-15T01:23:32;3.05;;;1.70;;
43986;SDS011;29650;47.378;8.300;2023-04-15T01:26:04;3.28;;;1.73;;
43986;SDS011;29650;47.378;8.300;2023-04-15T01:28:32;3.83;;;1.70;;
43986;SDS011;29650;47.378;8.300;2023-04-15T01:31:06;7.78;;;1.70;;
43986;SDS011;29650;47.378;8.300;2023-04-15T01:33:34;3.75;;;1.83;;
43986;SDS011;29650;47.378;8.300;2023-04-15T01:36:01;2.03;;;1.30;;
43986;SDS011;29650;47.378;8.300;2023-04-15T01:38:29;6.00;;;1.45;;
43986;SDS011;29650;47.378;8.300;2023-04-15T01:40:57;4.28;;;1.48;;
43986;SDS011;29650;47.378;8.300;2023-04-15T01:43:25;5.38;;;1.55;;
43986;SDS011;29650;47.378;8.300;2023-04-15T01:45:53;3.63;;;1.45;;
43986;SDS011;29650;47.378;8.300;2023-04-15T01:48:20;1.65;;;0.95;;
43986;SDS011;29650;47.378;8.300;2023-04-15T01:50:47;3.92;;;1.33;;
43986;SDS011;29650;47.378;8.300;2023-04-15T01:53:14;3.92;;;1.38;;
43986;SDS011;29650;47.378;8.300;2023-04-15T01:55:41;3.33;;;1.20;;
43986;SDS011;29650;47.378;8.300;2023-04-15T01:58:08;2.28;;;1.20;;
43986;SDS011;29650;47.378;8.300;2023-04-15T02:00:37;3.75;;;1.58;;
43986;SDS011;29650;47.378;8.300;2023-04-15T02:03:04;5.15;;;1.48;;
43986;SDS011;29650;47.378;8.300;2023-04-15T02:05:31;2.85;;;1.05;;
43986;SDS011;29650;47.378;8.300;2023-04-15T02:07:58;2.10;;;1.20;;
43986;SDS011;29650;47.378;8.300;2023-04-15T02:10:25;4.22;;;1.00;;
43986;SDS011;29650;47.378;8.300;2023-04-15T02:12:52;4.55;;;1.23;;
43986;SDS011;29650;47.378;8.300;2023-04-15T02:15:19;2.25;;;1.27;;
43986;SDS011;29650;47.378;8.300;2023-04-15T02:17:47;3.42;;;1.27;;
43986;SDS011;29650;47.378;8.300;2023-04-15T02:20:17;3.67;;;0.90;;
43986;SDS011;29650;47.378;8.300;2023-04-15T02:22:45;8.52;;;2.35;;
43986;SDS011;29650;47.378;8.300;2023-04-15T02:25:12;3.83;;;1.35;;
43986;SDS011;29650;47.378;8.300;2023-04-15T02:27:40;4.50;;;1.57;;
43986;SDS011;29650;47.378;8.300;2023-04-15T02:30:07;6.25;;;1.17;;
43986;SDS011;29650;47.378;8.300;2023-04-15T02:32:35;2.05;;;1.10;;
43986;SDS011;29650;47.378;8.300;2023-04-15T02:35:04;3.97;;;1.55;;
43986;SDS011;29650;47.378;8.300;2023-04-15T02:37:33;1.95;;;1.05;;
43986;SDS011;29650;47.378;8.300;2023-04-15T02:40:06;3.42;;;0.95;;
43986;SDS011;29650;47.378;8.300;2023-04-15T02:42:34;1.60;;;0.93;;
43986;SDS011;29650;47.378;8.300;2023-04-15T02:45:01;2.85;;;1.10;;
43986;SDS011;29650;47.378;8.300;2023-04-15T02:47:28;2.05;;;1.00;;
43986;SDS011;29650;47.378;8.300;2023-04-15T02:49:55;1.13;;;0.98;;
43986;SDS011;29650;47.378;8.300;2023-04-15T02:54:52;4.53;;;1.20;;
43986;SDS011;29650;47.378;8.300;2023-04-15T02:57:22;5.22;;;1.10;;
43986;SDS011;29650;47.378;8.300;2023-04-15T02:59:49;3.90;;;1.17;;
43986;SDS011;29650;47.378;8.300;2023-04-15T03:02:16;5.38;;;1.27;;
43986;SDS011;29650;47.378;8.300;2023-04-15T03:04:42;3.25;;;1.00;;
43986;SDS011;29650;47.378;8.300;2023-04-15T03:07:10;2.00;;;1.20;;
43986;SDS011;29650;47.378;8.300;2023-04-15T03:09:38;4.00;;;1.65;;
43986;SDS011;29650;47.378;8.300;2023-04-15T03:12:05;1.97;;;1.37;;
43986;SDS011;29650;47.378;8.300;2023-04-15T03:14:32;1.40;;;1.15;;
43986;SDS011;29650;47.378;8.300;2023-04-15T03:16:59;3.53;;;1.10;;
43986;SDS011;29650;47.378;8.300;2023-04-15T03:19:26;2.60;;;1.23;;
43986;SDS011;29650;47.378;8.300;2023-04-15T03:21:53;1.75;;;0.95;;
43986;SDS011;29650;47.378;8.300;2023-04-15T03:24:20;2.25;;;1.30;;
43986;SDS011;29650;47.378;8.300;2023-04-15T03:26:48;1.20;;;1.08;;
43986;SDS011;29650;47.378;8.300;2023-04-15T03:29:15;1.80;;;1.08;;
43986;SDS011;29650;47.378;8.300;2023-04-15T03:31:42;2.38;;;1.17;;
43986;SDS011;29650;47.378;8.300;2023-04-15T03:34:09;4.15;;;1.63;;
43986;SDS011;29650;47.378;8.300;2023-04-15T03:36:36;4.55;;;1.10;;
43986;SDS011;29650;47.378;8.300;2023-04-15T03:39:03;4.47;;;1.40;;
43986;SDS011;29650;47.378;8.300;2023-04-15T03:41:30;2.00;;;1.23;;
43986;SDS011;29650;47.378;8.300;2023-04-15T03:43:59;2.92;;;1.33;;
43986;SDS011;29650;47.378;8.300;2023-04-15T03:46:26;2.40;;;1.07;;
43986;SDS011;29650;47.378;8.300;2023-04-15T03:48:53;4.07;;;1.20;;
43986;SDS011;29650;47.378;8.300;2023-04-15T03:51:20;4.80;;;1.50;;
43986;SDS011;29650;47.378;8.300;2023-04-15T03:53:47;3.60;;;1.13;;
43986;SDS011;29650;47.378;8.300;2023-04-15T03:56:14;1.73;;;1.17;;
43986;SDS011;29650;47.378;8.300;2023-04-15T03:58:41;1.27;;;1.05;;
43986;SDS011;29650;47.378;8.300;2023-04-15T04:01:09;3.05;;;1.13;;
43986;SDS011;29650;47.378;8.300;2023-04-15T04:03:36;4.82;;;1.25;;
43986;SDS011;29650;47.378;8.300;2023-04-15T04:06:03;1.58;;;1.20;;
43986;SDS011;29650;47.378;8.300;2023-04-15T04:08:30;1.98;;;1.23;;
43986;SDS011;29650;47.378;8.300;2023-04-15T04:10:57;3.50;;;1.25;;
43986;SDS011;29650;47.378;8.300;2023-04-15T04:13:24;1.20;;;1.10;;
43986;SDS011;29650;47.378;8.300;2023-04-15T04:15:51;2.50;;;1.13;;
43986;SDS011;29650;47.378;8.300;2023-04-15T04:18:19;2.25;;;1.30;;
43986;SDS011;29650;47.378;8.300;2023-04-15T04:20:46;1.00;;;0.73;;
43986;SDS011;29650;47.378;8.300;2023-04-15T04:23:13;2.45;;;1.10;;
43986;SDS011;29650;47.378;8.300;2023-04-15T04:25:40;1.20;;;1.10;;
43986;SDS011;29650;47.378;8.300;2023-04-15T04:28:07;3.53;;;0.73;;
43986;SDS011;29650;47.378;8.300;2023-04-15T04:30:35;4.38;;;1.35;;
43986;SDS011;29650;47.378;8.300;2023-04-15T04:33:03;4.22;;;1.17;;
43986;SDS011;29650;47.378;8.300;2023-04-15T04:35:31;2.67;;;1.30;;
43986;SDS011;29650;47.378;8.300;2023-04-15T04:38:01;1.30;;;0.93;;
43986;SDS011;29650;47.378;8.300;2023-04-15T04:40:28;5.13;;;1.15;;
43986;SDS011;29650;47.378;8.300;2023-04-15T04:42:55;4.15;;;1.63;;
43986;SDS011;29650;47.378;8.300;2023-04-15T04:45:22;2.10;;;1.30;;
43986;SDS011;29650;47.378;8.300;2023-04-15T04:47:49;3.20;;;1.15;;
43986;SDS011;29650;47.378;8.300;2023-04-15T04:50:16;2.80;;;1.20;;
43986;SDS011;29650;47.378;8.300;2023-04-15T04:52:45;3.42;;;1.15;;
43986;SDS011;29650;47.378;8.300;2023-04-15T04:55:11;2.10;;;1.05;;
43986;SDS011;29650;47.378;8.300;2023-04-15T04:57:38;2.00;;;1.42;;
43986;SDS011;29650;47.378;8.300;2023-04-15T05:00:06;3.10;;;1.48;;
43986;SDS011;29650;47.378;8.300;2023-04-15T05:02:34;3.13;;;1.40;;
43986;SDS011;29650;47.378;8.300;2023-04-15T05:05:01;3.60;;;1.45;;
43986;SDS011;29650;47.378;8.300;2023-04-15T05:07:28;2.47;;;1.50;;
43986;SDS011;29650;47.378;8.300;2023-04-15T05:09:56;4.72;;;1.63;;
43986;SDS011;29650;47.378;8.300;2023-04-15T05:12:23;2.87;;;1.50;;
43986;SDS011;29650;47.378;8.300;2023-04-15T05:14:50;1.95;;;1.33;;
43986;SDS011;29650;47.378;8.300;2023-04-15T05:17:17;1.58;;;1.23;;
43986;SDS011;29650;47.378;8.300;2023-04-15T05:19:44;1.80;;;1.27;;
43986;SDS011;29650;47.378;8.300;2023-04-15T05:22:11;3.33;;;1.70;;
43986;SDS011;29650;47.378;8.300;2023-04-15T05:24:38;2.45;;;1.75;;
43986;SDS011;29650;47.378;8.300;2023-04-15T05:27:07;8.05;;;1.77;;
43986;SDS011;29650;47.378;8.300;2023-04-15T05:29:35;3.25;;;1.13;;
43986;SDS011;29650;47.378;8.300;2023-04-15T05:32:02;1.90;;;1.02;;
43986;SDS011;29650;47.378;8.300;2023-04-15T05:34:29;5.72;;;1.60;;
43986;SDS011;29650;47.378;8.300;2023-04-15T05:36:56;2.15;;;1.63;;
43986;SDS011;29650;47.378;8.300;2023-04-15T05:39:23;2.58;;;1.30;;
43986;SDS011;29650;47.378;8.300;2023-04-15T05:41:50;2.35;;;1.75;;
43986;SDS011;29650;47.378;8.300;2023-04-15T05:44:18;2.85;;;1.55;;
43986;SDS011;29650;47.378;8.300;2023-04-15T05:46:45;2.35;;;1.60;;
43986;SDS011;29650;47.378;8.300;2023-04-15T05:49:12;1.48;;;1.10;;
43986;SDS011;29650;47.378;8.300;2023-04-15T05:51:39;2.50;;;1.58;;
43986;SDS011;29650;47.378;8.300;2023-04-15T05:54:06;1.77;;;1.45;;
43986;SDS011;29650;47.378;8.300;2023-04-15T05:56:33;1.70;;;1.55;;
43986;SDS011;29650;47.378;8.300;2023-04-15T05:59:01;5.00;;;1.77;;
43986;SDS011;29650;47.378;8.300;2023-04-15T06:01:29;3.58;;;1.80;;
43986;SDS011;29650;47.378;8.300;2023-04-15T06:03:56;4.30;;;1.40;;
43986;SDS011;29650;47.378;8.300;2023-04-15T06:06:23;3.42;;;2.08;;
43986;SDS011;29650;47.378;8.300;2023-04-15T06:08:51;3.35;;;1.63;;
43986;SDS011;29650;47.378;8.300;2023-04-15T06:11:19;3.42;;;2.17;;
43986;SDS011;29650;47.378;8.300;2023-04-15T06:13:47;5.40;;;2.50;;
43986;SDS011;29650;47.378;8.300;2023-04-15T06:16:14;6.65;;;4.40;;
43986;SDS011;29650;47.378;8.300;2023-04-15T06:18:42;5.38;;;3.95;;
43986;SDS011;29650;47.378;8.300;2023-04-15T06:21:09;9.63;;;3.47;;
43986;SDS011;29650;47.378;8.300;2023-04-15T06:23:37;7.32;;;3.10;;
43986;SDS011;29650;47.378;8.300;2023-04-15T06:26:05;6.22;;;2.65;;
43986;SDS011;29650;47.378;8.300;2023-04-15T06:28:32;5.38;;;1.63;;
43986;SDS011;29650;47.378;8.300;2023-04-15T06:30:59;6.38;;;2.50;;
43986;SDS011;29650;47.378;8.300;2023-04-15T06:33:26;2.75;;;1.52;;
43986;SDS011;29650;47.378;8.300;2023-04-15T06:35:55;3.63;;;1.63;;
43986;SDS011;29650;47.378;8.300;2023-04-15T06:38:22;6.77;;;2.00;;
43986;SDS011;29650;47.378;8.300;2023-04-15T06:40:49;2.13;;;1.67;;
43986;SDS011;29650;47.378;8.300;2023-04-15T06:43:16;2.60;;;1.55;;
43986;SDS011;29650;47.378;8.300;2023-04-15T06:45:43;3.67;;;2.30;;
43986;SDS011;29650;47.378;8.300;2023-04-15T06:48:11;12.70;;;2.33;;
43986;SDS011;29650;47.378;8.300;2023-04-15T06:50:38;5.57;;;1.80;;
43986;SDS011;29650;47.378;8.300;2023-04-15T06:53:06;8.75;;;1.85;;
43986;SDS011;29650;47.378;8.300;2023-04-15T06:55:33;4.10;;;2.03;;
43986;SDS011;29650;47.378;8.300;2023-04-15T06:58:00;3.38;;;2.20;;
43986;SDS011;29650;47.378;8.300;2023-04-15T07:00:27;3.92;;;2.10;;
43986;SDS011;29650;47.378;8.300;2023-04-15T07:02:54;6.93;;;1.98;;
43986;SDS011;29650;47.378;8.300;2023-04-15T07:05:21;6.53;;;2.35;;
43986;SDS011;29650;47.378;8.300;2023-04-15T07:07:49;2.97;;;2.00;;
43986;SDS011;29650;47.378;8.300;2023-04-15T07:10:18;3.28;;;1.75;;
43986;SDS011;29650;47.378;8.300;2023-04-15T07:12:45;2.45;;;1.67;;
43986;SDS011;29650;47.378;8.300;2023-04-15T07:15:14;4.53;;;2.10;;
43986;SDS011;29650;47.378;8.300;2023-04-15T07:17:41;7.55;;;2.03;;
43986;SDS011;29650;47.378;8.300;2023-04-15T07:20:09;6.00;;;1.95;;
43986;SDS011;29650;47.378;8.300;2023-04-15T07:22:36;4.55;;;1.83;;
43986;SDS011;29650;47.378;8.300;2023-04-15T07:25:04;2.33;;;1.63;;
43986;SDS011;29650;47.378;8.300;2023-04-15T07:27:33;2.45;;;1.27;;
43986;SDS011;29650;47.378;8.300;2023-04-15T07:30:00;3.43;;;1.43;;
43986;SDS011;29650;47.378;8.300;2023-04-15T07:32:27;3.03;;;1.45;;
43986;SDS011;29650;47.378;8.300;2023-04-15T07:34:54;5.53;;;1.90;;
43986;SDS011;29650;47.378;8.300;2023-04-15T07:37:21;3.00;;;1.63;;
43986;SDS011;29650;47.378;8.300;2023-04-15T07:39:48;2.88;;;1.60;;
43986;SDS011;29650;47.378;8.300;2023-04-15T07:42:16;5.07;;;1.70;;
43986;SDS011;29650;47.378;8.300;2023-04-15T07:44:45;3.70;;;1.80;;
43986;SDS011;29650;47.378;8.300;2023-04-15T07:47:12;5.72;;;1.67;;
43986;SDS011;29650;47.378;8.300;2023-04-15T07:49:40;4.68;;;1.90;;
43986;SDS011;29650;47.378;8.300;2023-04-15T07:52:07;4.40;;;1.55;;
43986;SDS011;29650;47.378;8.300;2023-04-15T07:54:34;3.15;;;1.10;;
43986;SDS011;29650;47.378;8.300;2023-04-15T07:57:01;2.58;;;1.42;;
43986;SDS011;29650;47.378;8.300;2023-04-15T07:59:28;2.47;;;1.20;;
43986;SDS011;29650;47.378;8.300;2023-04-15T08:01:58;2.20;;;1.23;;
43986;SDS011;29650;47.378;8.300;2023-04-15T08:04:25;5.03;;;1.43;;
43986;SDS011;29650;47.378;8.300;2023-04-15T08:06:53;3.85;;;1.20;;
43986;SDS011;29650;47.378;8.300;2023-04-15T08:09:20;2.50;;;1.42;;
43986;SDS011;29650;47.378;8.300;2023-04-15T08:11:47;5.82;;;1.73;;
43986;SDS011;29650;47.378;8.300;2023-04-15T08:14:14;3.17;;;2.13;;
43986;SDS011;29650;47.378;8.300;2023-04-15T08:16:42;3.40;;;1.95;;
43986;SDS011;29650;47.378;8.300;2023-04-15T08:19:10;4.35;;;1.77;;
43986;SDS011;29650;47.378;8.300;2023-04-15T08:21:37;1.70;;;1.52;;
43986;SDS011;29650;47.378;8.300;2023-04-15T08:24:04;3.35;;;1.55;;
43986;SDS011;29650;47.378;8.300;2023-04-15T08:26:32;3.50;;;1.85;;
43986;SDS011;29650;47.378;8.300;2023-04-15T08:28:59;1.98;;;1.40;;
43986;SDS011;29650;47.378;8.300;2023-04-15T08:31:27;3.85;;;1.80;;
43986;SDS011;29650;47.378;8.300;2023-04-15T08:33:55;4.30;;;1.75;;
43986;SDS011;29650;47.378;8.300;2023-04-15T08:36:24;2.35;;;1.83;;
43986;SDS011;29650;47.378;8.300;2023-04-15T08:38:52;3.75;;;1.80;;
43986;SDS011;29650;47.378;8.300;2023-04-15T08:41:20;3.47;;;1.85;;
43986;SDS011;29650;47.378;8.300;2023-04-15T08:43:51;1.70;;;1.60;;
43986;SDS011;29650;47.378;8.300;2023-04-15T08:46:19;2.10;;;1.65;;
43986;SDS011;29650;47.378;8.300;2023-04-15T08:48:47;1.42;;;1.30;;
43986;SDS011;29650;47.378;8.300;2023-04-15T08:51:15;3.47;;;1.45;;
43986;SDS011;29650;47.378;8.300;2023-04-15T08:53:44;4.03;;;1.45;;
43986;SDS011;29650;47.378;8.300;2023-04-15T08:56:13;2.45;;;1.20;;
43986;SDS011;29650;47.378;8.300;2023-04-15T08:58:41;2.88;;;1.67;;
43986;SDS011;29650;47.378;8.300;2023-04-15T09:01:10;3.08;;;1.42;;
43986;SDS011;29650;47.378;8.300;2023-04-15T09:03:38;3.42;;;1.40;;
43986;SDS011;29650;47.378;8.300;2023-04-15T09:06:05;3.03;;;1.75;;
43986;SDS011;29650;47.378;8.300;2023-04-15T09:08:32;3.60;;;1.50;;
43986;SDS011;29650;47.378;8.300;2023-04-15T09:11:01;3.22;;;1.55;;
43986;SDS011;29650;47.378;8.300;2023-04-15T09:13:28;6.93;;;2.10;;
43986;SDS011;29650;47.378;8.300;2023-04-15T09:15:56;2.55;;;1.70;;
43986;SDS011;29650;47.378;8.300;2023-04-15T09:18:26;1.85;;;1.35;;
43986;SDS011;29650;47.378;8.300;2023-04-15T09:20:54;2.42;;;1.50;;
43986;SDS011;29650;47.378;8.300;2023-04-15T09:23:22;1.85;;;1.60;;
43986;SDS011;29650;47.378;8.300;2023-04-15T09:25:49;3.33;;;1.83;;
43986;SDS011;29650;47.378;8.300;2023-04-15T09:28:24;3.55;;;2.00;;
43986;SDS011;29650;47.378;8.300;2023-04-15T09:30:54;3.03;;;1.45;;
43986;SDS011;29650;47.378;8.300;2023-04-15T09:33:21;3.15;;;1.27;;
43986;SDS011;29650;47.378;8.300;2023-04-15T09:35:56;2.53;;;1.35;;
43986;SDS011;29650;47.378;8.300;2023-04-15T09:38:25;7.47;;;1.77;;
43986;SDS011;29650;47.378;8.300;2023-04-15T09:40:52;1.80;;;1.05;;
43986;SDS011;29650;47.378;8.300;2023-04-15T09:43:19;6.35;;;2.08;;
43986;SDS011;29650;47.378;8.300;2023-04-15T09:45:48;3.42;;;1.05;;
43986;SDS011;29650;47.378;8.300;2023-04-15T09:48:18;4.10;;;1.40;;
43986;SDS011;29650;47.378;8.300;2023-04-15T09:50:46;4.07;;;1.52;;
43986;SDS011;29650;47.378;8.300;2023-04-15T09:53:17;2.92;;;1.02;;
43986;SDS011;29650;47.378;8.300;2023-04-15T09:55:47;6.13;;;1.50;;
43986;SDS011;29650;47.378;8.300;2023-04-15T09:58:18;3.75;;;1.20;;
43986;SDS011;29650;47.378;8.300;2023-04-15T10:00:48;2.80;;;1.48;;
43986;SDS011;29650;47.378;8.300;2023-04-15T10:03:17;4.32;;;1.75;;
43986;SDS011;29650;47.378;8.300;2023-04-15T10:05:46;3.10;;;1.42;;
43986;SDS011;29650;47.378;8.300;2023-04-15T10:08:15;1.00;;;0.85;;
43986;SDS011;29650;47.378;8.300;2023-04-15T10:10:43;6.97;;;1.30;;
43986;SDS011;29650;47.378;8.300;2023-04-15T10:13:12;3.17;;;1.05;;
43986;SDS011;29650;47.378;8.300;2023-04-15T10:15:41;3.17;;;1.65;;
43986;SDS011;29650;47.378;8.300;2023-04-15T10:18:13;3.03;;;1.48;;
43986;SDS011;29650;47.378;8.300;2023-04-15T10:20:41;4.30;;;1.30;;
43986;SDS011;29650;47.378;8.300;2023-04-15T10:23:10;1.20;;;1.10;;
43986;SDS011;29650;47.378;8.300;2023-04-15T10:25:37;2.45;;;1.48;;
43986;SDS011;29650;47.378;8.300;2023-04-15T10:28:05;5.68;;;1.98;;
43986;SDS011;29650;47.378;8.300;2023-04-15T10:30:32;3.63;;;1.95;;
43986;SDS011;29650;47.378;8.300;2023-04-15T10:32:59;2.40;;;1.67;;
43986;SDS011;29650;47.378;8.300;2023-04-15T10:35:30;4.00;;;1.73;;
43986;SDS011;29650;47.378;8.300;2023-04-15T10:37:58;1.52;;;1.23;;
43986;SDS011;29650;47.378;8.300;2023-04-15T10:40:26;3.00;;;1.02;;
43986;SDS011;29650;47.378;8.300;2023-04-15T10:42:56;4.72;;;1.30;;
43986;SDS011;29650;47.378;8.300;2023-04-15T10:45:25;4.15;;;1.63;;
43986;SDS011;29650;47.378;8.300;2023-04-15T10:47:56;4.70;;;1.35;;
43986;SDS011;29650;47.378;8.300;2023-04-15T10:50:24;1.15;;;1.05;;
43986;SDS011;29650;47.378;8.300;2023-04-15T10:52:53;4.57;;;1.73;;
43986;SDS011;29650;47.378;8.300;2023-04-15T10:55:22;2.28;;;1.48;;
43986;SDS011;29650;47.378;8.300;2023-04-15T10:57:51;3.17;;;2.10;;
43986;SDS011;29650;47.378;8.300;2023-04-15T11:00:19;3.47;;;2.45;;
43986;SDS011;29650;47.378;8.300;2023-04-15T11:02:51;5.95;;;1.77;;
43986;SDS011;29650;47.378;8.300;2023-04-15T11:05:22;3.63;;;1.80;;
43986;SDS011;29650;47.378;8.300;2023-04-15T11:08:11;1.50;;;1.40;;
43986;SDS011;29650;47.378;8.300;2023-04-15T11:10:49;2.08;;;1.40;;
43986;SDS011;29650;47.378;8.300;2023-04-15T11:13:23;2.95;;;1.70;;
43986;SDS011;29650;47.378;8.300;2023-04-15T11:15:58;4.55;;;1.85;;
43986;SDS011;29650;47.378;8.300;2023-04-15T11:18:27;3.88;;;1.55;;
43986;SDS011;29650;47.378;8.300;2023-04-15T11:20:59;4.20;;;1.52;;
43986;SDS011;29650;47.378;8.300;2023-04-15T11:23:30;2.08;;;1.27;;
43986;SDS011;29650;47.378;8.300;2023-04-15T11:26:03;2.90;;;1.50;;
43986;SDS011;29650;47.378;8.300;2023-04-15T11:28:33;3.55;;;1.52;;
43986;SDS011;29650;47.378;8.300;2023-04-15T11:31:07;2.72;;;1.77;;
43986;SDS011;29650;47.378;8.300;2023-04-15T11:33:37;3.53;;;1.58;;
43986;SDS011;29650;47.378;8.300;2023-04-15T11:36:10;4.72;;;2.22;;
43986;SDS011;29650;47.378;8.300;2023-04-15T11:38:42;4.35;;;2.20;;
43986;SDS011;29650;47.378;8.300;2023-04-15T11:41:10;3.63;;;1.80;;
43986;SDS011;29650;47.378;8.300;2023-04-15T11:43:37;7.95;;;1.98;;
43986;SDS011;29650;47.378;8.300;2023-04-15T11:46:04;5.78;;;2.00;;
43986;SDS011;29650;47.378;8.300;2023-04-15T11:48:33;2.70;;;2.00;;
43986;SDS011;29650;47.378;8.300;2023-04-15T11:51:01;2.75;;;1.80;;
43986;SDS011;29650;47.378;8.300;2023-04-15T11:53:36;3.70;;;2.37;;
43986;SDS011;29650;47.378;8.300;2023-04-15T11:56:06;3.38;;;2.00;;
43986;SDS011;29650;47.378;8.300;2023-04-15T11:58:34;4.82;;;2.30;;
43986;SDS011;29650;47.378;8.300;2023-04-15T12:01:03;2.67;;;2.03;;
43986;SDS011;29650;47.378;8.300;2023-04-15T12:03:35;2.53;;;1.60;;
43986;SDS011;29650;47.378;8.300;2023-04-15T12:06:07;2.67;;;1.70;;
43986;SDS011;29650;47.378;8.300;2023-04-15T12:08:56;2.72;;;1.80;;
43986;SDS011;29650;47.378;8.300;2023-04-15T12:11:29;1.55;;;1.45;;
43986;SDS011;29650;47.378;8.300;2023-04-15T12:14:14;2.78;;;1.60;;
43986;SDS011;29650;47.378;8.300;2023-04-15T12:16:44;2.28;;;1.38;;
43986;SDS011;29650;47.378;8.300;2023-04-15T12:19:13;1.92;;;1.23;;
43986;SDS011;29650;47.378;8.300;2023-04-15T12:21:43;1.40;;;1.30;;
43986;SDS011;29650;47.378;8.300;2023-04-15T12:26:43;4.90;;;1.73;;
43986;SDS011;29650;47.378;8.300;2023-04-15T12:29:12;4.20;;;1.58;;
43986;SDS011;29650;47.378;8.300;2023-04-15T12:31:46;2.22;;;1.13;;
43986;SDS011;29650;47.378;8.300;2023-04-15T12:34:16;2.50;;;1.05;;
43986;SDS011;29650;47.378;8.300;2023-04-15T12:36:44;2.72;;;1.15;;
43986;SDS011;29650;47.378;8.300;2023-04-15T12:39:11;3.15;;;1.15;;
43986;SDS011;29650;47.378;8.300;2023-04-15T12:41:38;1.73;;;1.15;;
43986;SDS011;29650;47.378;8.300;2023-04-15T12:44:07;2.15;;;0.95;;
43986;SDS011;29650;47.378;8.300;2023-04-15T12:46:36;3.05;;;1.20;;
43986;SDS011;29650;47.378;8.300;2023-04-15T12:49:03;6.05;;;1.10;;
43986;SDS011;29650;47.378;8.300;2023-04-15T12:51:30;2.80;;;1.10;;
43986;SDS011;29650;47.378;8.300;2023-04-15T12:53:57;4.28;;;0.70;;
43986;SDS011;29650;47.378;8.300;2023-04-15T12:56:24;0.80;;;0.70;;
43986;SDS011;29650;47.378;8.300;2023-04-15T12:58:51;1.80;;;0.88;;
43986;SDS011;29650;47.378;8.300;2023-04-15T13:01:19;0.98;;;0.60;;
43986;SDS011;29650;47.378;8.300;2023-04-15T13:03:46;0.85;;;0.52;;
43986;SDS011;29650;47.378;8.300;2023-04-15T13:06:14;3.53;;;0.40;;
43986;SDS011;29650;47.378;8.300;2023-04-15T13:08:41;0.93;;;0.43;;
43986;SDS011;29650;47.378;8.300;2023-04-15T13:11:08;2.10;;;0.70;;
43986;SDS011;29650;47.378;8.300;2023-04-15T13:13:35;0.82;;;0.45;;
43986;SDS011;29650;47.378;8.300;2023-04-15T13:16:02;0.98;;;0.40;;
43986;SDS011;29650;47.378;8.300;2023-04-15T13:18:31;1.02;;;0.40;;
43986;SDS011;29650;47.378;8.300;2023-04-15T13:20:59;18.77;;;1.27;;
43986;SDS011;29650;47.378;8.300;2023-04-15T13:23:26;6.28;;;0.95;;
43986;SDS011;29650;47.378;8.300;2023-04-15T13:25:53;2.63;;;0.60;;
43986;SDS011;29650;47.378;8.300;2023-04-15T13:28:21;6.40;;;0.50;;
43986;SDS011;29650;47.378;8.300;2023-04-15T13:30:48;1.20;;;0.40;;
43986;SDS011;29650;47.378;8.300;2023-04-15T13:33:15;0.40;;;0.25;;
43986;SDS011;29650;47.378;8.300;2023-04-15T13:35:44;0.80;;;0.38;;
43986;SDS011;29650;47.378;8.300;2023-04-15T13:38:11;1.38;;;0.50;;
43986;SDS011;29650;47.378;8.300;2023-04-15T13:40:37;0.20;;;0.20;;
43986;SDS011;29650;47.378;8.300;2023-04-15T13:43:04;0.28;;;0.28;;
43986;SDS011;29650;47.378;8.300;2023-04-15T13:45:31;0.50;;;0.50;;
43986;SDS011;29650;47.378;8.300;2023-04-15T13:47:58;0.30;;;0.22;;
43986;SDS011;29650;47.378;8.300;2023-04-15T13:50:26;0.20;;;0.20;;
43986;SDS011;29650;47.378;8.300;2023-04-15T13:52:55;0.32;;;0.10;;
43986;SDS011;29650;47.378;8.300;2023-04-15T13:55:21;2.83;;;0.40;;
43986;SDS011;29650;47.378;8.300;2023-04-15T13:57:48;0.28;;;0.20;;
43986;SDS011;29650;47.378;8.300;2023-04-15T14:00:16;0.85;;;0.35;;
43986;SDS011;29650;47.378;8.300;2023-04-15T14:02:43;0.17;;;0.15;;
43986;SDS011;29650;47.378;8.300;2023-04-15T14:05:10;1.02;;;0.30;;
43986;SDS011;29650;47.378;8.300;2023-04-15T14:07:37;0.32;;;0.20;;
43986;SDS011;29650;47.378;8.300;2023-04-15T14:10:06;0.10;;;0.10;;
43986;SDS011;29650;47.378;8.300;2023-04-15T14:12:33;0.43;;;0.15;;
43986;SDS011;29650;47.378;8.300;2023-04-15T14:15:00;0.28;;;0.20;;
43986;SDS011;29650;47.378;8.300;2023-04-15T14:17:27;0.15;;;0.10;;
43986;SDS011;29650;47.378;8.300;2023-04-15T14:19:54;0.10;;;0.10;;
43986;SDS011;29650;47.378;8.300;2023-04-15T14:22:21;0.40;;;0.20;;
43986;SDS011;29650;47.378;8.300;2023-04-15T14:24:48;0.30;;;0.20;;
43986;SDS011;29650;47.378;8.300;2023-04-15T14:27:19;0.20;;;0.20;;
43986;SDS011;29650;47.378;8.300;2023-04-15T14:29:46;0.03;;;0.03;;
43986;SDS011;29650;47.378;8.300;2023-04-15T14:32:13;0.63;;;0.20;;
43986;SDS011;29650;47.378;8.300;2023-04-15T14:34:40;0.25;;;0.25;;
43986;SDS011;29650;47.378;8.300;2023-04-15T14:37:07;1.08;;;0.30;;
43986;SDS011;29650;47.378;8.300;2023-04-15T14:39:34;2.50;;;0.50;;
43986;SDS011;29650;47.378;8.300;2023-04-15T14:42:01;0.40;;;0.30;;
43986;SDS011;29650;47.378;8.300;2023-04-15T14:44:29;0.50;;;0.30;;
43986;SDS011;29650;47.378;8.300;2023-04-15T14:46:56;1.10;;;0.30;;
43986;SDS011;29650;47.378;8.300;2023-04-15T14:49:23;1.27;;;0.30;;
43986;SDS011;29650;47.378;8.300;2023-04-15T14:51:50;0.40;;;0.30;;
43986;SDS011;29650;47.378;8.300;2023-04-15T14:54:17;1.48;;;0.50;;
43986;SDS011;29650;47.378;8.300;2023-04-15T14:56:43;0.43;;;0.40;;
43986;SDS011;29650;47.378;8.300;2023-04-15T14:59:10;2.35;;;0.30;;
43986;SDS011;29650;47.378;8.300;2023-04-15T15:01:39;0.20;;;0.20;;